Corozal, Belize
Current Conditions -  °F | °C
As of 6:43 PM on Tuesday 21 Oct 2014 (Local Time) from MMCM Reporting Station
Scattered Clouds Scattered Clouds  
Wind Chill: 29°   Ceiling: Unl
Heat Index: 34°   Visibility: 7mi
Dew Point: 25°   Wind: 12mph
Humidity: 79%   Direction: 120°ESE
Pressure: 29.71"   Gusts: NA
Location:  18.4°N, 88.39°W
Report Text: MMCM 220043Z 12010KT 7SM SCT020 SCT090 29/25 A2971 RMK 8/530 CB NW RTS
Loading
Personal Weather Stations






























Interactive Weather Map
Tropical Storm Tracking
New forecast layout! Learn more

10-Day Weather Forecast

Advertisements
Track Severe Weather on mobile